Time;durP1;ratioP1;P1;durP2;ratioP2;P2;SDS_P1;SDS_P2;PMS_P1;PMS_P2;Temp;Humidity;BMP_temperature;BMP_pressure;BME280_temperature;BME280_humidity;BME280_pressure;Samples;Min_cycle;Max_cycle;Signal;HPM_P1;HPM_P2
2022/08/16 00:00:07;;;;;;;5.70;3.07;;;20.20;90.40;;;;;;5037931;28;20439;-70
2022/08/16 00:02:55;;;;;;;3.40;2.60;;;20.10;90.60;;;;;;5032409;28;20483;-70
2022/08/16 00:05:42;;;;;;;6.80;3.50;;;20.10;90.60;;;;;;5032564;28;20457;-70
2022/08/16 00:08:28;;;;;;;4.30;2.83;;;20.00;90.70;;;;;;5035946;28;21068;-70
2022/08/16 00:11:14;;;;;;;4.10;2.90;;;19.90;91.00;;;;;;5031851;28;20530;-70
2022/08/16 00:14:00;;;;;;;4.70;2.87;;;19.90;91.00;;;;;;5028381;28;20507;-70
2022/08/16 00:16:47;;;;;;;5.77;2.90;;;19.90;91.20;;;;;;5032114;28;20392;-70
2022/08/16 00:19:35;;;;;;;3.60;3.20;;;19.80;91.20;;;;;;5031952;28;20424;-71
2022/08/16 00:22:21;;;;;;;4.30;2.90;;;19.80;91.20;;;;;;5037012;28;20858;-70
2022/08/16 00:25:09;;;;;;;5.00;3.67;;;19.70;91.40;;;;;;5032060;28;20472;-70
2022/08/16 00:27:55;;;;;;;3.63;3.10;;;19.70;91.40;;;;;;5039283;28;21049;-70
2022/08/16 00:30:40;;;;;;;3.10;2.67;;;19.70;91.40;;;;;;5036182;28;20448;-70
2022/08/16 00:33:26;;;;;;;4.30;3.27;;;19.60;91.80;;;;;;5033847;28;21033;-70
2022/08/16 00:36:13;;;;;;;6.07;3.53;;;19.50;92.10;;;;;;5030035;28;20935;-70
2022/08/16 00:38:59;;;;;;;5.80;3.50;;;19.50;92.10;;;;;;5036078;28;20463;-70
2022/08/16 00:41:47;;;;;;;6.83;3.43;;;19.30;92.90;;;;;;5034958;28;20594;-70
2022/08/16 00:44:34;;;;;;;3.60;3.07;;;19.30;93.30;;;;;;5029028;28;20991;-70
2022/08/16 00:47:21;;;;;;;3.47;2.90;;;19.20;93.60;;;;;;5032353;28;20427;-70
2022/08/16 00:50:08;;;;;;;7.47;3.53;;;19.20;93.80;;;;;;5032478;28;20428;-70
2022/08/16 00:52:55;;;;;;;4.50;3.67;;;19.30;93.90;;;;;;5031491;28;20421;-70
2022/08/16 00:55:44;;;;;;;4.97;3.13;;;19.20;94.10;;;;;;5025733;28;20429;-71
2022/08/16 00:58:32;;;;;;;3.40;2.97;;;19.20;94.00;;;;;;5035277;28;20984;-70
2022/08/16 01:01:19;;;;;;;7.53;3.40;;;19.10;94.50;;;;;;5039501;28;20440;-70
2022/08/16 01:04:06;;;;;;;4.80;3.40;;;19.10;94.70;;;;;;5026821;28;20472;-70
2022/08/16 01:06:52;;;;;;;6.40;3.67;;;19.00;95.20;;;;;;5034524;28;20432;-70
2022/08/16 01:09:39;;;;;;;6.90;3.70;;;19.00;95.10;;;;;;5032151;28;20432;-70
2022/08/16 01:12:25;;;;;;;4.80;3.50;;;19.00;95.00;;;;;;5031929;28;20440;-70
2022/08/16 01:15:11;;;;;;;6.93;4.03;;;19.00;95.40;;;;;;5030431;28;20989;-70
2022/08/16 01:17:58;;;;;;;8.17;3.43;;;18.90;95.40;;;;;;5034569;28;20440;-70
2022/08/16 01:20:49;;;;;;;4.87;3.20;;;18.90;95.40;;;;;;5031761;28;20797;-70
2022/08/16 01:23:48;;;;;;;9.90;3.57;;;18.80;96.20;;;;;;5029431;28;20476;-70
2022/08/16 01:26:36;;;;;;;6.53;4.00;;;18.70;96.90;;;;;;5027190;28;20495;-70
2022/08/16 01:29:26;;;;;;;4.33;3.23;;;18.80;97.10;;;;;;5032206;28;20463;-70
2022/08/16 01:32:12;;;;;;;4.77;3.50;;;18.80;97.10;;;;;;5028306;28;20456;-70
2022/08/16 01:34:58;;;;;;;5.80;3.20;;;18.90;96.90;;;;;;5027852;28;20507;-70
2022/08/16 01:37:45;;;;;;;5.73;3.40;;;18.80;96.80;;;;;;5032114;28;20428;-70
2022/08/16 01:40:32;;;;;;;5.70;4.23;;;18.90;96.80;;;;;;5028884;28;20455;-70
2022/08/16 01:43:19;;;;;;;4.20;3.13;;;19.00;96.60;;;;;;5029656;28;20851;-70
2022/08/16 01:46:08;;;;;;;4.33;3.60;;;19.10;96.10;;;;;;5027498;28;20961;-70
2022/08/16 01:48:55;;;;;;;4.60;3.70;;;19.20;95.80;;;;;;5030647;28;20432;-70
2022/08/16 01:51:43;;;;;;;4.70;3.37;;;19.20;96.20;;;;;;5029327;28;20460;-70
2022/08/16 01:54:29;;;;;;;4.23;3.33;;;19.30;96.20;;;;;;5028823;28;20560;-70
2022/08/16 01:57:16;;;;;;;4.90;3.37;;;19.30;96.00;;;;;;5033507;28;20594;-70
2022/08/16 02:00:04;;;;;;;4.03;3.10;;;19.30;95.80;;;;;;5035804;28;20419;-70
2022/08/16 02:02:49;;;;;;;4.33;3.73;;;19.20;95.70;;;;;;5029471;28;20452;-70
2022/08/16 02:05:35;;;;;;;4.67;3.60;;;19.00;95.80;;;;;;5032640;28;20420;-70
2022/08/16 02:08:21;;;;;;;4.60;3.60;;;18.90;96.30;;;;;;5028978;28;20425;-70
2022/08/16 02:11:08;;;;;;;8.30;3.97;;;18.80;96.60;;;;;;5034320;28;20941;-70
2022/08/16 02:13:55;;;;;;;5.17;4.10;;;18.70;97.80;;;;;;5027421;28;20444;-70
2022/08/16 02:16:43;;;;;;;6.20;3.87;;;18.50;97.70;;;;;;5034654;28;20471;-70
2022/08/16 02:19:31;;;;;;;7.50;4.10;;;18.40;99.70;;;;;;5035021;28;20419;-71
2022/08/16 02:22:21;;;;;;;4.70;3.40;;;18.30;99.90;;;;;;5035205;28;20530;-70
2022/08/16 02:25:11;;;;;;;5.73;3.80;;;18.20;99.90;;;;;;5035004;28;20508;-70
2022/08/16 02:27:58;;;;;;;4.60;3.70;;;18.20;99.90;;;;;;5035573;28;20505;-71
2022/08/16 02:30:45;;;;;;;5.77;3.50;;;18.20;99.90;;;;;;5036922;28;20446;-70
2022/08/16 02:33:30;;;;;;;4.37;3.83;;;18.30;99.90;;;;;;5031564;28;20444;-70
2022/08/16 02:36:18;;;;;;;4.40;3.60;;;18.50;99.90;;;;;;5032773;28;20587;-70
2022/08/16 02:39:05;;;;;;;4.50;4.00;;;18.60;99.90;;;;;;5040814;28;20428;-71
2022/08/16 02:41:53;;;;;;;5.07;3.80;;;18.70;99.90;;;;;;5031601;28;20502;-70
2022/08/16 02:44:40;;;;;;;4.27;3.87;;;18.70;99.90;;;;;;5032610;28;20946;-70
2022/08/16 02:47:27;;;;;;;5.53;3.90;;;18.70;99.90;;;;;;5034768;28;20583;-70
2022/08/16 02:50:13;;;;;;;5.50;4.90;;;18.70;99.90;;;;;;5032538;28;20436;-70
2022/08/16 02:52:59;;;;;;;6.70;4.20;;;18.60;99.90;;;;;;5031493;28;20444;-70
2022/08/16 02:55:44;;;;;;;6.57;3.70;;;18.50;99.90;;;;;;5035011;28;20444;-70
2022/08/16 02:58:31;;;;;;;8.30;4.07;;;18.50;99.90;;;;;;5042412;28;20422;-70
2022/08/16 03:01:21;;;;;;;4.80;3.90;;;18.40;99.90;;;;;;5038682;28;20472;-70
2022/08/16 03:04:08;;;;;;;8.20;3.80;;;18.40;99.90;;;;;;5026947;28;20481;-70
2022/08/16 03:06:54;;;;;;;6.80;4.00;;;18.40;99.90;;;;;;5035305;28;20431;-70
2022/08/16 03:09:40;;;;;;;6.00;3.67;;;18.50;99.90;;;;;;5034079;28;20564;-70
2022/08/16 03:12:26;;;;;;;5.87;3.57;;;18.40;99.90;;;;;;5019915;28;20532;-71
2022/08/16 03:15:13;;;;;;;4.70;3.90;;;18.30;99.90;;;;;;5036088;28;20467;-70
2022/08/16 03:18:00;;;;;;;5.33;4.57;;;18.20;99.90;;;;;;5037559;28;20452;-70
2022/08/16 03:20:47;;;;;;;8.20;4.60;;;18.20;99.90;;;;;;5029120;28;20471;-70
2022/08/16 03:23:33;;;;;;;9.60;3.80;;;18.20;99.90;;;;;;5037052;28;20979;-70
2022/08/16 03:26:19;;;;;;;7.50;4.50;;;18.30;99.90;;;;;;5042648;28;20427;-70
2022/08/16 03:29:05;;;;;;;5.10;4.60;;;18.40;99.90;;;;;;5037837;28;20592;-70
2022/08/16 03:31:51;;;;;;;5.10;4.60;;;18.50;99.90;;;;;;5031924;28;20492;-70
2022/08/16 03:34:37;;;;;;;5.10;3.87;;;18.60;99.90;;;;;;5034202;28;21151;-70
2022/08/16 03:37:24;;;;;;;6.37;4.30;;;18.80;99.90;;;;;;5034601;28;20556;-70
2022/08/16 03:40:11;;;;;;;7.50;3.77;;;18.90;99.90;;;;;;5035329;28;20425;-70
2022/08/16 03:42:57;;;;;;;4.10;3.33;;;18.90;99.90;;;;;;5029976;28;20483;-70
2022/08/16 03:45:42;;;;;;;6.37;4.10;;;18.90;99.90;;;;;;5033058;28;21012;-70
2022/08/16 03:48:32;;;;;;;7.90;3.93;;;18.90;99.90;;;;;;5029037;28;20423;-70
2022/08/16 03:51:18;;;;;;;4.93;3.80;;;18.90;99.90;;;;;;5028363;28;20495;-70
2022/08/16 03:54:05;;;;;;;6.43;4.17;;;18.80;99.90;;;;;;5035997;28;20544;-70
2022/08/16 03:56:51;;;;;;;5.20;4.47;;;18.80;99.90;;;;;;5035505;28;20651;-70
2022/08/16 03:59:37;;;;;;;10.07;4.83;;;18.70;99.90;;;;;;5033446;28;20495;-70
2022/08/16 04:02:22;;;;;;;5.73;4.43;;;18.50;99.90;;;;;;5029523;28;21044;-70
2022/08/16 04:05:09;;;;;;;6.73;4.53;;;18.50;99.90;;;;;;5034790;28;20467;-70
2022/08/16 04:07:55;;;;;;;8.00;4.43;;;18.50;99.90;;;;;;5032508;28;20440;-70
2022/08/16 04:10:42;;;;;;;6.97;4.70;;;18.40;99.90;;;;;;5025186;28;20585;-70
2022/08/16 04:13:30;;;;;;;6.53;4.90;;;18.40;99.90;;;;;;5032624;28;20899;-70
2022/08/16 04:16:16;;;;;;;6.80;4.60;;;18.40;99.90;;;;;;5032867;28;20425;-70
2022/08/16 04:19:02;;;;;;;4.17;3.77;;;18.50;99.90;;;;;;5028975;28;20519;-70
2022/08/16 04:21:48;;;;;;;5.30;4.30;;;18.50;99.90;;;;;;5030367;28;20484;-70
2022/08/16 04:24:34;;;;;;;7.10;4.83;;;18.40;99.90;;;;;;5037788;28;20464;-70
2022/08/16 04:27:21;;;;;;;5.20;4.70;;;18.30;99.90;;;;;;5037831;28;20424;-70
2022/08/16 04:30:13;;;;;;;5.60;4.50;;;18.30;99.90;;;;;;5033354;28;20448;-70
2022/08/16 04:32:59;;;;;;;6.43;4.23;;;18.20;99.90;;;;;;5033959;28;20432;-71
2022/08/16 04:35:45;;;;;;;5.00;4.50;;;18.20;99.90;;;;;;5031888;28;20419;-70
2022/08/16 04:38:30;;;;;;;6.70;4.60;;;18.20;99.90;;;;;;5040591;28;20834;-70
2022/08/16 04:41:16;;;;;;;7.93;4.40;;;18.20;99.90;;;;;;5028617;28;20571;-70
2022/08/16 04:44:03;;;;;;;7.60;4.93;;;18.20;99.90;;;;;;5033581;28;20469;-70
2022/08/16 04:46:49;;;;;;;5.40;4.37;;;18.10;99.90;;;;;;5031550;28;20428;-70
2022/08/16 04:49:35;;;;;;;11.03;4.57;;;18.20;99.90;;;;;;5029599;28;20495;-70
2022/08/16 04:52:21;;;;;;;10.60;4.77;;;18.30;99.90;;;;;;5035067;28;20457;-71
2022/08/16 04:55:09;;;;;;;5.80;4.50;;;18.40;99.90;;;;;;5039144;28;20420;-71
2022/08/16 04:57:56;;;;;;;7.47;4.70;;;18.50;99.90;;;;;;5037165;28;20428;-71
2022/08/16 05:00:42;;;;;;;7.57;5.40;;;18.60;99.90;;;;;;5027182;28;20849;-72
2022/08/16 05:03:28;;;;;;;5.73;4.53;;;18.70;99.90;;;;;;5029382;28;20425;-72
2022/08/16 05:06:14;;;;;;;6.07;4.40;;;18.70;99.90;;;;;;5035752;28;20428;-72
2022/08/16 05:08:59;;;;;;;9.43;5.33;;;18.80;99.90;;;;;;5031003;28;20824;-71
2022/08/16 05:11:45;;;;;;;6.77;5.20;;;18.80;99.90;;;;;;5029233;28;20444;-71
2022/08/16 05:14:31;;;;;;;4.60;4.13;;;18.80;99.90;;;;;;5037650;28;20961;-71
2022/08/16 05:17:18;;;;;;;6.57;5.67;;;18.80;99.90;;;;;;5033137;28;20423;-72
2022/08/16 05:20:05;;;;;;;5.27;4.77;;;18.80;99.90;;;;;;5030332;28;20539;-71
2022/08/16 05:22:51;;;;;;;6.77;4.53;;;18.90;99.90;;;;;;5036104;28;20431;-72
2022/08/16 05:25:37;;;;;;;5.97;5.37;;;19.00;99.90;;;;;;5028562;28;20496;-70
2022/08/16 05:28:23;;;;;;;6.83;4.43;;;19.20;99.90;;;;;;5039694;28;20428;-71
2022/08/16 05:31:08;;;;;;;6.67;4.90;;;19.20;99.90;;;;;;5029054;28;20452;-71
2022/08/16 05:33:55;;;;;;;8.07;5.30;;;19.30;99.90;;;;;;5031812;28;20444;-71
2022/08/16 05:36:41;;;;;;;7.40;6.30;;;19.40;99.90;;;;;;5031247;28;20440;-71
2022/08/16 05:39:27;;;;;;;12.67;5.87;;;19.40;99.90;;;;;;5028176;28;20527;-70
2022/08/16 05:42:13;;;;;;;14.90;5.80;;;19.50;99.90;;;;;;5028466;28;20596;-72
2022/08/16 05:44:59;;;;;;;10.80;5.43;;;19.60;99.90;;;;;;5032605;28;20483;-71
2022/08/16 05:47:45;;;;;;;6.10;5.50;;;19.60;99.90;;;;;;5029275;28;20576;-71
2022/08/16 05:50:32;;;;;;;7.93;6.50;;;19.70;99.90;;;;;;5025223;28;20582;-71
2022/08/16 05:53:18;;;;;;;9.90;5.87;;;19.70;99.90;;;;;;5038297;28;20894;-71
2022/08/16 05:56:04;;;;;;;7.60;5.90;;;19.60;99.90;;;;;;5036352;28;20567;-72
2022/08/16 05:58:50;;;;;;;6.43;5.80;;;19.40;99.90;;;;;;5028362;28;20502;-72
2022/08/16 06:01:35;;;;;;;13.97;5.83;;;19.30;99.90;;;;;;5036096;28;20483;-71
2022/08/16 06:04:22;;;;;;;8.60;5.60;;;19.30;99.90;;;;;;5029959;28;20468;-72
2022/08/16 06:07:09;;;;;;;9.53;5.67;;;19.50;99.90;;;;;;5039723;28;20424;-71
2022/08/16 06:09:57;;;;;;;6.67;5.43;;;19.60;99.90;;;;;;5026223;28;20440;-70
2022/08/16 06:12:43;;;;;;;6.63;5.50;;;19.70;99.90;;;;;;5035771;28;20432;-71
2022/08/16 06:15:29;;;;;;;6.03;5.03;;;19.80;99.90;;;;;;5027719;28;20591;-72
2022/08/16 06:18:14;;;;;;;9.40;5.10;;;19.80;99.90;;;;;;5028104;28;20451;-71
2022/08/16 06:21:00;;;;;;;7.10;6.13;;;20.00;99.90;;;;;;5032631;28;20448;-72
2022/08/16 06:23:47;;;;;;;7.23;5.40;;;20.00;99.90;;;;;;5036802;28;20420;-72
2022/08/16 06:26:34;;;;;;;6.47;5.80;;;20.00;99.90;;;;;;5035607;28;20424;-71
2022/08/16 06:29:19;;;;;;;8.23;6.50;;;20.20;99.90;;;;;;5027914;28;20452;-71
2022/08/16 06:32:06;;;;;;;7.13;5.50;;;20.30;99.90;;;;;;5030813;28;20467;-72
2022/08/16 06:34:51;;;;;;;8.83;5.30;;;20.40;99.90;;;;;;5031674;28;20424;-72
2022/08/16 06:37:39;;;;;;;12.70;5.70;;;20.40;99.90;;;;;;5033707;28;20429;-72
2022/08/16 06:40:26;;;;;;;7.07;6.33;;;20.40;99.90;;;;;;5028946;28;20587;-72
2022/08/16 06:43:11;;;;;;;6.10;5.53;;;20.40;99.90;;;;;;5029002;28;20416;-72
2022/08/16 06:45:57;;;;;;;7.00;5.77;;;20.30;99.90;;;;;;5029753;28;20533;-69
2022/08/16 06:48:42;;;;;;;7.53;5.70;;;20.40;99.90;;;;;;5027341;28;20463;-71
2022/08/16 06:51:28;;;;;;;6.00;5.47;;;20.50;99.90;;;;;;5031005;28;20531;-71
2022/08/16 06:54:14;;;;;;;6.67;5.80;;;20.70;99.90;;;;;;5041531;28;20485;-70
2022/08/16 06:57:01;;;;;;;9.50;6.50;;;20.80;99.90;;;;;;5034453;28;20583;-71
2022/08/16 06:59:47;;;;;;;17.40;6.97;;;21.00;99.90;;;;;;5030400;28;20432;-72
2022/08/16 07:02:33;;;;;;;7.00;5.93;;;21.20;99.90;;;;;;5037163;28;20489;-72
2022/08/16 07:05:20;;;;;;;12.27;6.80;;;21.30;99.90;;;;;;5034463;28;20467;-71
2022/08/16 07:08:05;;;;;;;7.30;6.57;;;21.40;99.90;;;;;;5024518;28;20548;-72
2022/08/16 07:10:52;;;;;;;10.10;6.67;;;21.50;98.50;;;;;;5037670;28;20451;-71
2022/08/16 07:13:39;;;;;;;14.70;7.17;;;21.70;98.80;;;;;;5037519;28;20444;-71
2022/08/16 07:16:26;;;;;;;6.97;6.03;;;21.60;96.90;;;;;;5032938;28;20777;-71
2022/08/16 07:19:12;;;;;;;14.33;7.17;;;21.60;97.60;;;;;;5033694;28;20436;-72
2022/08/16 07:22:01;;;;;;;9.47;6.80;;;21.60;97.10;;;;;;5037704;28;20802;-72
2022/08/16 07:24:46;;;;;;;9.30;6.57;;;21.70;97.10;;;;;;5036915;28;20467;-72
2022/08/16 07:27:32;;;;;;;8.77;6.93;;;21.80;97.70;;;;;;5031122;28;21233;-71
2022/08/16 07:30:19;;;;;;;11.47;7.43;;;21.90;95.90;;;;;;5033462;28;20429;-72
2022/08/16 07:33:06;;;;;;;8.17;6.80;;;22.00;95.90;;;;;;5038843;28;20420;-72
2022/08/16 07:35:51;;;;;;;10.77;6.53;;;22.00;95.70;;;;;;5036101;28;20428;-72
2022/08/16 07:38:38;;;;;;;13.50;8.17;;;22.10;95.50;;;;;;5029501;28;20529;-71
2022/08/16 07:41:24;;;;;;;8.67;7.00;;;21.90;94.90;;;;;;5034032;28;20448;-70
2022/08/16 07:44:10;;;;;;;9.37;7.00;;;21.90;95.40;;;;;;5030233;28;20440;-72
2022/08/16 07:46:57;;;;;;;7.90;6.60;;;21.90;95.10;;;;;;5033068;28;20851;-70
2022/08/16 07:49:43;;;;;;;9.30;7.33;;;21.90;95.00;;;;;;5035899;28;20785;-71
2022/08/16 07:52:28;;;;;;;11.40;7.50;;;21.90;94.50;;;;;;5031296;28;20814;-72
2022/08/16 07:55:18;;;;;;;8.83;7.43;;;22.00;94.80;;;;;;5037121;28;20424;-72
2022/08/16 07:58:04;;;;;;;10.60;7.47;;;22.10;94.60;;;;;;5025671;28;20452;-72
2022/08/16 08:00:50;;;;;;;11.20;7.53;;;22.20;94.70;;;;;;5032648;28;20445;-72
2022/08/16 08:03:37;;;;;;;14.90;9.43;;;22.30;93.90;;;;;;5034347;28;21038;-72
2022/08/16 08:06:28;;;;;;;10.83;6.40;;;22.30;93.20;;;;;;5032061;28;20929;-72
2022/08/16 08:09:14;;;;;;;13.03;6.10;;;22.50;92.90;;;;;;5032630;28;21065;-72
2022/08/16 08:12:00;;;;;;;8.27;7.47;;;22.70;92.20;;;;;;5032727;28;20464;-70
2022/08/16 08:14:45;;;;;;;10.43;7.00;;;22.70;91.20;;;;;;5031243;28;20596;-70
2022/08/16 08:17:32;;;;;;;9.70;7.20;;;22.80;91.40;;;;;;5030349;28;20986;-70
2022/08/16 08:20:25;;;;;;;7.10;6.37;;;22.90;90.70;;;;;;5031038;28;20428;-71
2022/08/16 08:23:13;;;;;;;12.33;7.40;;;22.80;89.60;;;;;;5034438;28;20934;-70
2022/08/16 08:25:59;;;;;;;9.73;6.07;;;22.80;89.40;;;;;;5033653;28;20531;-70
2022/08/16 08:28:45;;;;;;;8.60;7.13;;;22.90;90.20;;;;;;5032520;28;20479;-70
2022/08/16 08:31:30;;;;;;;8.07;6.73;;;23.00;90.10;;;;;;5038035;28;20591;-70
2022/08/16 08:34:16;;;;;;;8.80;6.23;;;23.10;90.10;;;;;;5038388;28;20820;-70
2022/08/16 08:37:04;;;;;;;10.27;7.17;;;23.30;90.00;;;;;;5031549;28;20444;-70
2022/08/16 08:39:49;;;;;;;7.83;6.87;;;23.30;88.20;;;;;;5033030;28;21072;-70
2022/08/16 08:42:35;;;;;;;10.70;6.50;;;23.20;86.50;;;;;;5027739;28;20583;-70
2022/08/16 08:45:21;;;;;;;6.57;5.97;;;23.10;86.40;;;;;;5031371;28;20993;-70
2022/08/16 08:48:08;;;;;;;8.60;6.17;;;23.10;87.40;;;;;;5030634;28;20428;-70
2022/08/16 08:50:53;;;;;;;10.20;7.63;;;23.00;88.00;;;;;;5037652;28;21239;-70
2022/08/16 08:53:42;;;;;;;12.93;6.70;;;23.10;88.20;;;;;;5041464;28;20429;-70
2022/08/16 08:56:28;;;;;;;9.30;7.30;;;23.20;87.30;;;;;;5026904;28;20483;-70
2022/08/16 08:59:14;;;;;;;9.37;6.70;;;23.20;85.30;;;;;;5036092;28;20436;-70
2022/08/16 09:02:00;;;;;;;11.77;7.37;;;23.20;86.40;;;;;;5036615;28;20490;-70
2022/08/16 09:04:47;;;;;;;12.03;7.30;;;23.20;85.40;;;;;;5030414;28;20429;-70
2022/08/16 09:07:32;;;;;;;10.10;6.90;;;23.30;84.50;;;;;;5028297;28;20990;-70
2022/08/16 09:10:20;;;;;;;9.40;7.20;;;23.50;84.60;;;;;;5036833;28;20977;-70
2022/08/16 09:13:06;;;;;;;8.70;6.80;;;23.70;81.50;;;;;;5034877;28;20439;-70
2022/08/16 09:15:52;;;;;;;7.90;7.10;;;23.80;80.70;;;;;;5028493;28;20518;-70
2022/08/16 09:18:38;;;;;;;10.70;7.57;;;23.90;77.80;;;;;;5033497;28;20770;-71
2022/08/16 09:21:24;;;;;;;8.00;7.00;;;24.00;77.90;;;;;;5033724;28;20813;-71
2022/08/16 09:24:09;;;;;;;9.60;6.90;;;24.20;75.90;;;;;;5033503;28;20429;-71
2022/08/16 09:26:56;;;;;;;8.67;7.47;;;24.40;76.50;;;;;;5026043;28;20542;-70
2022/08/16 09:29:42;;;;;;;8.57;7.40;;;24.60;73.60;;;;;;5034002;28;20555;-71
2022/08/16 09:32:28;;;;;;;12.30;6.97;;;24.70;70.90;;;;;;5033983;28;20847;-71
2022/08/16 09:35:14;;;;;;;12.50;7.83;;;24.80;70.80;;;;;;5031173;28;20452;-71
2022/08/16 09:37:59;;;;;;;10.47;6.70;;;24.50;69.20;;;;;;5036157;28;20528;-70
2022/08/16 09:40:47;;;;;;;7.87;6.13;;;24.40;70.60;;;;;;5029062;28;20801;-70
2022/08/16 09:43:34;;;;;;;11.80;6.20;;;24.50;70.40;;;;;;5036536;28;20427;-71
2022/08/16 09:46:22;;;;;;;9.37;7.00;;;24.70;68.70;;;;;;5029273;28;20471;-70
2022/08/16 09:49:08;;;;;;;7.57;6.77;;;25.00;67.90;;;;;;5034884;28;20787;-70
2022/08/16 09:51:53;;;;;;;9.70;6.97;;;25.10;65.50;;;;;;5036186;28;20468;-71
2022/08/16 09:54:40;;;;;;;11.13;7.20;;;25.20;65.30;;;;;;5033992;28;20798;-70
2022/08/16 09:57:26;;;;;;;8.70;5.93;;;25.20;64.20;;;;;;5026397;28;20425;-70
2022/08/16 10:00:13;;;;;;;10.57;6.20;;;25.30;62.50;;;;;;5030159;28;20424;-70
2022/08/16 10:03:00;;;;;;;10.03;5.27;;;25.40;61.20;;;;;;5032849;28;20575;-70
2022/08/16 10:05:46;;;;;;;8.60;5.80;;;25.50;60.60;;;;;;5022937;28;20480;-70
2022/08/16 10:08:31;;;;;;;7.50;6.77;;;25.70;59.70;;;;;;5031403;28;20483;-70
2022/08/16 10:14:21;;;;;;;7.20;5.90;;;25.70;56.80;;;;;;5029088;28;20482;-71
2022/08/16 10:17:09;;;;;;;6.47;5.80;;;25.80;57.20;;;;;;5034395;28;20510;-71
2022/08/16 10:19:55;;;;;;;9.40;5.10;;;26.00;57.10;;;;;;5031204;28;20428;-71
2022/08/16 10:22:40;;;;;;;5.93;5.20;;;26.20;55.40;;;;;;5038446;28;20424;-70
2022/08/16 10:25:26;;;;;;;10.57;5.70;;;26.30;53.40;;;;;;5026345;28;20522;-69
2022/08/16 10:28:12;;;;;;;10.53;4.70;;;26.20;50.90;;;;;;5035728;28;20502;-70
2022/08/16 10:30:59;;;;;;;6.93;5.07;;;26.20;53.10;;;;;;5032081;28;20924;-70
2022/08/16 10:33:47;;;;;;;8.37;5.10;;;26.30;50.90;;;;;;5032851;28;20429;-71
2022/08/16 10:36:33;;;;;;;6.17;5.57;;;26.30;50.30;;;;;;5032767;28;20413;-70
2022/08/16 10:39:18;;;;;;;7.77;4.97;;;26.00;49.50;;;;;;5038487;28;20440;-70
2022/08/16 10:42:04;;;;;;;10.60;5.23;;;26.10;50.80;;;;;;5039113;28;20965;-69
2022/08/16 10:44:50;;;;;;;10.63;6.20;;;26.30;51.80;;;;;;5028177;28;20445;-69
2022/08/16 10:47:37;;;;;;;5.27;4.77;;;26.30;48.30;;;;;;5034799;28;20479;-69
2022/08/16 10:50:24;;;;;;;6.20;4.77;;;26.30;48.90;;;;;;5038799;28;20432;-70
2022/08/16 10:53:10;;;;;;;5.57;4.63;;;26.30;49.40;;;;;;5044271;28;20423;-70
2022/08/16 10:55:55;;;;;;;6.63;5.87;;;26.30;48.70;;;;;;5032362;28;20791;-71
2022/08/16 10:58:41;;;;;;;8.80;5.60;;;26.40;47.60;;;;;;5037847;28;20430;-71
2022/08/16 11:01:27;;;;;;;6.73;5.30;;;26.60;47.10;;;;;;5034726;28;20444;-70
2022/08/16 11:04:13;;;;;;;5.23;4.70;;;26.80;46.40;;;;;;5028561;28;20551;-71
2022/08/16 11:07:01;;;;;;;7.80;5.70;;;27.10;46.60;;;;;;5028658;28;20546;-71
2022/08/16 11:09:47;;;;;;;6.90;4.80;;;27.10;44.30;;;;;;5037382;28;20953;-71
2022/08/16 11:12:33;;;;;;;7.70;4.47;;;27.20;44.30;;;;;;5036102;28;20424;-72
2022/08/16 11:15:19;;;;;;;12.20;4.93;;;27.40;44.40;;;;;;5035732;28;20455;-71
2022/08/16 11:18:07;;;;;;;6.03;4.63;;;27.40;40.50;;;;;;5037603;28;20428;-72
2022/08/16 11:20:53;;;;;;;6.17;4.60;;;27.50;40.60;;;;;;5036121;28;20448;-72
2022/08/16 11:23:40;;;;;;;5.83;3.87;;;27.60;40.00;;;;;;5031255;28;20449;-72
2022/08/16 11:26:27;;;;;;;4.83;4.37;;;27.80;38.60;;;;;;5034293;28;20536;-71
2022/08/16 11:29:12;;;;;;;5.80;3.80;;;27.90;37.30;;;;;;5034895;28;20533;-72
2022/08/16 11:31:58;;;;;;;4.60;4.10;;;27.80;37.60;;;;;;5039417;28;20554;-71
2022/08/16 11:34:44;;;;;;;8.60;4.83;;;27.50;37.80;;;;;;5035832;28;20452;-72
2022/08/16 11:37:32;;;;;;;9.13;4.73;;;27.30;38.60;;;;;;5031200;28;20424;-73
2022/08/16 11:40:19;;;;;;;5.03;3.93;;;27.40;39.00;;;;;;5035724;28;20425;-72
2022/08/16 11:43:05;;;;;;;7.63;5.20;;;27.50;39.10;;;;;;5028042;28;20576;-71
2022/08/16 11:45:50;;;;;;;5.83;4.50;;;27.60;39.20;;;;;;5034801;28;20954;-72
2022/08/16 11:48:37;;;;;;;9.40;4.60;;;27.80;37.40;;;;;;5036448;28;20433;-72
2022/08/16 11:51:23;;;;;;;4.70;3.90;;;28.00;37.40;;;;;;5038959;28;21000;-73
2022/08/16 11:54:08;;;;;;;8.83;4.33;;;28.00;37.40;;;;;;5033334;28;20552;-72
2022/08/16 11:56:55;;;;;;;8.27;4.60;;;28.10;35.60;;;;;;5033899;28;20415;-72
2022/08/16 11:59:41;;;;;;;7.47;4.40;;;28.10;34.10;;;;;;5037534;28;20456;-72
2022/08/16 12:02:27;;;;;;;5.13;4.57;;;28.20;34.00;;;;;;5034689;28;20619;-72
2022/08/16 12:05:14;;;;;;;6.93;3.90;;;28.00;33.10;;;;;;5032419;28;20424;-73
2022/08/16 12:08:00;;;;;;;5.20;4.00;;;28.00;35.80;;;;;;5038560;28;20812;-72
2022/08/16 12:10:46;;;;;;;5.93;3.63;;;28.20;35.30;;;;;;5039887;28;20976;-72
2022/08/16 12:13:33;;;;;;;7.40;4.30;;;28.40;33.30;;;;;;5035659;28;20578;-73
2022/08/16 12:16:19;;;;;;;7.50;4.20;;;28.40;33.30;;;;;;5040325;28;20775;-72
2022/08/16 12:19:07;;;;;;;5.50;4.10;;;28.40;33.90;;;;;;5034883;28;20564;-72
2022/08/16 12:21:53;;;;;;;5.47;4.57;;;28.50;33.40;;;;;;5035370;28;20932;-72
2022/08/16 12:24:38;;;;;;;8.80;4.40;;;28.30;34.30;;;;;;5029641;28;20861;-70
2022/08/16 12:27:25;;;;;;;9.70;5.07;;;28.40;34.90;;;;;;5036928;28;20619;-72
2022/08/16 12:30:15;;;;;;;9.80;4.77;;;28.60;33.50;;;;;;5035177;28;20463;-72
2022/08/16 12:33:01;;;;;;;5.63;3.70;;;28.80;33.60;;;;;;5037671;28;20982;-72
2022/08/16 12:35:48;;;;;;;4.20;3.73;;;29.10;31.20;;;;;;5040435;28;20478;-72
2022/08/16 12:38:34;;;;;;;5.77;4.43;;;29.00;30.10;;;;;;5036659;28;20499;-73
2022/08/16 12:41:20;;;;;;;6.37;3.67;;;29.00;30.80;;;;;;5041790;28;21031;-72
2022/08/16 12:44:06;;;;;;;7.27;4.30;;;28.90;30.10;;;;;;5032338;28;20448;-72
2022/08/16 12:49:52;;;;;;;7.17;3.97;;;29.30;30.20;;;;;;5036035;28;20463;-72
2022/08/16 12:52:38;;;;;;;4.20;3.60;;;29.50;28.10;;;;;;5030951;28;20511;-73
2022/08/16 12:55:24;;;;;;;4.30;3.63;;;29.20;28.60;;;;;;5033100;28;20417;-72
2022/08/16 12:58:10;;;;;;;3.70;3.30;;;29.40;29.40;;;;;;5035066;28;20424;-72
2022/08/16 13:00:57;;;;;;;4.40;3.57;;;29.50;29.40;;;;;;5034759;28;20440;-72
2022/08/16 13:03:44;;;;;;;4.23;3.60;;;29.60;28.80;;;;;;5033576;28;20447;-72
2022/08/16 13:06:30;;;;;;;5.73;4.03;;;29.40;28.60;;;;;;5039004;28;20472;-72
2022/08/16 13:09:22;;;;;;;5.27;3.80;;;29.00;29.00;;;;;;5036727;28;20429;-71
2022/08/16 13:12:17;;;;;;;7.73;4.23;;;28.70;29.60;;;;;;5026282;28;20522;-71
2022/08/16 13:15:04;;;;;;;5.33;4.40;;;28.30;30.10;;;;;;5033374;28;20451;-72
2022/08/16 13:17:50;;;;;;;7.67;4.70;;;28.10;32.00;;;;;;5031065;28;20452;-72
2022/08/16 13:20:37;;;;;;;4.60;3.67;;;28.00;33.00;;;;;;5034270;28;20459;-71
2022/08/16 13:23:26;;;;;;;4.83;3.90;;;27.90;31.40;;;;;;5033234;28;21076;-72
2022/08/16 13:26:12;;;;;;;7.27;3.93;;;28.10;32.80;;;;;;5030729;28;20942;-72
2022/08/16 13:28:58;;;;;;;4.60;3.50;;;28.30;30.50;;;;;;5040263;28;20435;-72
2022/08/16 13:31:43;;;;;;;4.43;3.97;;;28.10;29.70;;;;;;5031651;28;20816;-72
2022/08/16 13:34:29;;;;;;;4.67;3.50;;;28.10;30.00;;;;;;5029616;28;20804;-72
2022/08/16 13:37:16;;;;;;;3.97;3.20;;;28.30;29.60;;;;;;5034119;28;20457;-71
2022/08/16 13:40:05;;;;;;;7.40;3.90;;;28.50;30.10;;;;;;5032469;28;20427;-72
2022/08/16 13:42:53;;;;;;;5.90;4.10;;;28.60;30.80;;;;;;5035056;28;20914;-71
2022/08/16 13:45:39;;;;;;;5.20;4.00;;;29.10;29.90;;;;;;5032303;28;20424;-72
2022/08/16 13:48:25;;;;;;;6.90;3.80;;;29.50;28.40;;;;;;5031631;28;20558;-72
2022/08/16 13:51:12;;;;;;;5.30;3.70;;;29.90;28.10;;;;;;5030217;28;20483;-72
2022/08/16 13:54:02;;;;;;;7.00;4.13;;;30.30;28.10;;;;;;5032341;28;20447;-72
2022/08/16 13:56:47;;;;;;;6.50;3.67;;;30.60;27.00;;;;;;5032785;28;20440;-72
2022/08/16 13:59:33;;;;;;;6.90;3.83;;;30.50;26.50;;;;;;5031499;28;20444;-72
2022/08/16 14:02:19;;;;;;;13.73;4.13;;;30.70;25.80;;;;;;5022485;28;21091;-71
2022/08/16 14:05:06;;;;;;;8.30;3.80;;;30.80;25.50;;;;;;5033978;28;20517;-70
2022/08/16 14:07:52;;;;;;;6.50;4.00;;;30.90;25.40;;;;;;5030193;28;20484;-70
2022/08/16 14:10:39;;;;;;;4.20;3.63;;;31.20;25.10;;;;;;5032493;28;20467;-71
2022/08/16 14:13:24;;;;;;;4.87;3.47;;;31.30;24.10;;;;;;5024901;28;20487;-71
2022/08/16 14:16:12;;;;;;;5.00;4.03;;;31.40;24.20;;;;;;5037438;28;20424;-70
2022/08/16 14:18:57;;;;;;;8.83;3.90;;;31.40;24.20;;;;;;5033387;28;20424;-70
2022/08/16 14:21:43;;;;;;;5.57;4.10;;;31.40;23.00;;;;;;5025809;28;20688;-70
2022/08/16 14:24:29;;;;;;;5.60;3.80;;;31.40;23.90;;;;;;5023587;28;20571;-70
2022/08/16 14:27:17;;;;;;;6.00;3.77;;;31.70;23.70;;;;;;5033123;28;21078;-70
2022/08/16 14:30:05;;;;;;;6.03;3.00;;;31.70;24.00;;;;;;5032661;28;20408;-71